sensor_id;sensor_type;location;lat;lon;timestamp;P1;durP1;ratioP1;P2;durP2;ratioP2
38302;SDS011;24103;42.454;27.400;2022-11-02T00:00:55;0.95;;;0.95;;
38302;SDS011;24103;42.454;27.400;2022-11-02T00:03:25;1.27;;;1.17;;
38302;SDS011;24103;42.454;27.400;2022-11-02T00:05:51;1.67;;;1.58;;
38302;SDS011;24103;42.454;27.400;2022-11-02T00:08:16;1.10;;;1.10;;
38302;SDS011;24103;42.454;27.400;2022-11-02T00:10:42;1.00;;;1.00;;
38302;SDS011;24103;42.454;27.400;2022-11-02T00:13:07;0.80;;;0.80;;
38302;SDS011;24103;42.454;27.400;2022-11-02T00:15:33;1.15;;;1.15;;
38302;SDS011;24103;42.454;27.400;2022-11-02T00:18:01;0.88;;;0.88;;
38302;SDS011;24103;42.454;27.400;2022-11-02T00:20:29;0.82;;;0.82;;
38302;SDS011;24103;42.454;27.400;2022-11-02T00:22:56;0.90;;;0.90;;
38302;SDS011;24103;42.454;27.400;2022-11-02T00:25:25;0.70;;;0.70;;
38302;SDS011;24103;42.454;27.400;2022-11-02T00:27:53;0.70;;;0.70;;
38302;SDS011;24103;42.454;27.400;2022-11-02T00:30:19;0.52;;;0.52;;
38302;SDS011;24103;42.454;27.400;2022-11-02T00:32:44;0.93;;;0.93;;
38302;SDS011;24103;42.454;27.400;2022-11-02T00:35:10;0.60;;;0.60;;
38302;SDS011;24103;42.454;27.400;2022-11-02T00:37:36;0.60;;;0.60;;
38302;SDS011;24103;42.454;27.400;2022-11-02T00:40:02;0.70;;;0.70;;
38302;SDS011;24103;42.454;27.400;2022-11-02T00:42:28;0.75;;;0.75;;
38302;SDS011;24103;42.454;27.400;2022-11-02T00:44:54;0.82;;;0.82;;
38302;SDS011;24103;42.454;27.400;2022-11-02T00:47:19;0.80;;;0.80;;
38302;SDS011;24103;42.454;27.400;2022-11-02T00:49:45;0.80;;;0.80;;
38302;SDS011;24103;42.454;27.400;2022-11-02T00:52:10;1.00;;;1.00;;
38302;SDS011;24103;42.454;27.400;2022-11-02T00:54:36;0.90;;;0.90;;
38302;SDS011;24103;42.454;27.400;2022-11-02T00:57:01;1.00;;;1.00;;
38302;SDS011;24103;42.454;27.400;2022-11-02T00:59:27;0.80;;;0.80;;
38302;SDS011;24103;42.454;27.400;2022-11-02T01:01:52;0.88;;;0.88;;
38302;SDS011;24103;42.454;27.400;2022-11-02T01:04:18;0.80;;;0.80;;
38302;SDS011;24103;42.454;27.400;2022-11-02T01:06:44;0.90;;;0.90;;
38302;SDS011;24103;42.454;27.400;2022-11-02T01:09:10;0.98;;;0.98;;
38302;SDS011;24103;42.454;27.400;2022-11-02T01:11:36;1.02;;;1.00;;
38302;SDS011;24103;42.454;27.400;2022-11-02T01:14:01;0.75;;;0.75;;
38302;SDS011;24103;42.454;27.400;2022-11-02T01:16:27;0.70;;;0.70;;
38302;SDS011;24103;42.454;27.400;2022-11-02T01:18:53;0.80;;;0.80;;
38302;SDS011;24103;42.454;27.400;2022-11-02T01:21:20;0.73;;;0.73;;
38302;SDS011;24103;42.454;27.400;2022-11-02T01:23:46;0.65;;;0.65;;
38302;SDS011;24103;42.454;27.400;2022-11-02T01:26:12;0.60;;;0.60;;
38302;SDS011;24103;42.454;27.400;2022-11-02T01:28:37;0.60;;;0.60;;
38302;SDS011;24103;42.454;27.400;2022-11-02T01:31:04;0.70;;;0.70;;
38302;SDS011;24103;42.454;27.400;2022-11-02T01:33:30;0.73;;;0.73;;
38302;SDS011;24103;42.454;27.400;2022-11-02T01:35:56;0.85;;;0.85;;
38302;SDS011;24103;42.454;27.400;2022-11-02T01:38:22;0.88;;;0.88;;
38302;SDS011;24103;42.454;27.400;2022-11-02T01:40:48;0.90;;;0.90;;
38302;SDS011;24103;42.454;27.400;2022-11-02T01:43:24;0.80;;;0.80;;
38302;SDS011;24103;42.454;27.400;2022-11-02T01:45:51;1.00;;;1.00;;
38302;SDS011;24103;42.454;27.400;2022-11-02T01:48:34;1.45;;;1.45;;
38302;SDS011;24103;42.454;27.400;2022-11-02T01:51:05;1.10;;;1.10;;
38302;SDS011;24103;42.454;27.400;2022-11-02T01:53:35;1.85;;;1.75;;
38302;SDS011;24103;42.454;27.400;2022-11-02T01:56:04;1.90;;;1.80;;
38302;SDS011;24103;42.454;27.400;2022-11-02T01:58:30;1.73;;;1.63;;
38302;SDS011;24103;42.454;27.400;2022-11-02T02:00:59;2.38;;;2.17;;
38302;SDS011;24103;42.454;27.400;2022-11-02T02:03:25;1.25;;;1.25;;
38302;SDS011;24103;42.454;27.400;2022-11-02T02:05:59;0.90;;;0.90;;
38302;SDS011;24103;42.454;27.400;2022-11-02T02:08:28;0.90;;;0.90;;
38302;SDS011;24103;42.454;27.400;2022-11-02T02:10:56;0.80;;;0.80;;
38302;SDS011;24103;42.454;27.400;2022-11-02T02:13:22;0.90;;;0.90;;
38302;SDS011;24103;42.454;27.400;2022-11-02T02:15:53;0.90;;;0.90;;
38302;SDS011;24103;42.454;27.400;2022-11-02T02:18:41;0.80;;;0.80;;
38302;SDS011;24103;42.454;27.400;2022-11-02T02:35:45;1.08;;;1.08;;
38302;SDS011;24103;42.454;27.400;2022-11-02T02:37:50;0.93;;;0.93;;
38302;SDS011;24103;42.454;27.400;2022-11-02T02:43:35;1.25;;;1.23;;
38302;SDS011;24103;42.454;27.400;2022-11-02T02:46:06;1.30;;;1.30;;
38302;SDS011;24103;42.454;27.400;2022-11-02T02:48:36;1.20;;;1.20;;
38302;SDS011;24103;42.454;27.400;2022-11-02T02:51:09;1.60;;;1.50;;
38302;SDS011;24103;42.454;27.400;2022-11-02T02:53:40;1.95;;;1.85;;
38302;SDS011;24103;42.454;27.400;2022-11-02T02:56:09;1.70;;;1.60;;
38302;SDS011;24103;42.454;27.400;2022-11-02T02:58:43;1.80;;;1.70;;
38302;SDS011;24103;42.454;27.400;2022-11-02T03:01:12;1.58;;;1.48;;
38302;SDS011;24103;42.454;27.400;2022-11-02T03:03:40;1.38;;;1.27;;
38302;SDS011;24103;42.454;27.400;2022-11-02T03:08:47;2.83;;;2.63;;
38302;SDS011;24103;42.454;27.400;2022-11-02T03:11:20;2.00;;;1.90;;
38302;SDS011;24103;42.454;27.400;2022-11-02T03:13:54;2.20;;;2.00;;
38302;SDS011;24103;42.454;27.400;2022-11-02T03:21:43;2.72;;;2.53;;
38302;SDS011;24103;42.454;27.400;2022-11-02T03:24:15;2.42;;;2.22;;
38302;SDS011;24103;42.454;27.400;2022-11-02T03:32:28;1.65;;;1.55;;
38302;SDS011;24103;42.454;27.400;2022-11-02T03:35:05;1.20;;;1.17;;
38302;SDS011;24103;42.454;27.400;2022-11-02T03:37:36;0.85;;;0.85;;
38302;SDS011;24103;42.454;27.400;2022-11-02T03:40:07;0.60;;;0.60;;
38302;SDS011;24103;42.454;27.400;2022-11-02T03:42:44;0.73;;;0.73;;
38302;SDS011;24103;42.454;27.400;2022-11-02T03:45:15;1.17;;;1.10;;
38302;SDS011;24103;42.454;27.400;2022-11-02T03:50:12;1.05;;;1.05;;
38302;SDS011;24103;42.454;27.400;2022-11-02T03:52:43;1.75;;;1.65;;
38302;SDS011;24103;42.454;27.400;2022-11-02T03:57:41;1.17;;;1.13;;
38302;SDS011;24103;42.454;27.400;2022-11-02T04:00:14;1.30;;;1.20;;
38302;SDS011;24103;42.454;27.400;2022-11-02T04:02:54;1.92;;;1.83;;
38302;SDS011;24103;42.454;27.400;2022-11-02T04:05:26;2.60;;;2.40;;
38302;SDS011;24103;42.454;27.400;2022-11-02T04:07:56;2.65;;;2.50;;
38302;SDS011;24103;42.454;27.400;2022-11-02T04:10:41;1.70;;;1.60;;
38302;SDS011;24103;42.454;27.400;2022-11-02T04:13:26;1.58;;;1.48;;
38302;SDS011;24103;42.454;27.400;2022-11-02T04:16:11;0.75;;;0.75;;
38302;SDS011;24103;42.454;27.400;2022-11-02T04:18:37;1.30;;;1.20;;
38302;SDS011;24103;42.454;27.400;2022-11-02T04:21:21;1.70;;;1.60;;
38302;SDS011;24103;42.454;27.400;2022-11-02T04:23:46;1.50;;;1.40;;
38302;SDS011;24103;42.454;27.400;2022-11-02T04:26:31;1.05;;;1.05;;
38302;SDS011;24103;42.454;27.400;2022-11-02T04:28:56;0.82;;;0.82;;
38302;SDS011;24103;42.454;27.400;2022-11-02T04:31:21;1.50;;;1.40;;
38302;SDS011;24103;42.454;27.400;2022-11-02T04:33:47;1.10;;;1.08;;
38302;SDS011;24103;42.454;27.400;2022-11-02T04:36:12;1.50;;;1.40;;
38302;SDS011;24103;42.454;27.400;2022-11-02T04:38:38;0.90;;;0.90;;
38302;SDS011;24103;42.454;27.400;2022-11-02T04:41:17;1.10;;;1.10;;
38302;SDS011;24103;42.454;27.400;2022-11-02T04:44:03;0.73;;;0.73;;
38302;SDS011;24103;42.454;27.400;2022-11-02T04:46:31;1.27;;;1.17;;
38302;SDS011;24103;42.454;27.400;2022-11-02T04:48:58;0.68;;;0.68;;
38302;SDS011;24103;42.454;27.400;2022-11-02T04:51:26;0.40;;;0.40;;
38302;SDS011;24103;42.454;27.400;2022-11-02T04:53:53;0.70;;;0.70;;
38302;SDS011;24103;42.454;27.400;2022-11-02T04:56:19;0.60;;;0.60;;
38302;SDS011;24103;42.454;27.400;2022-11-02T04:58:49;0.57;;;0.57;;
38302;SDS011;24103;42.454;27.400;2022-11-02T05:01:16;0.50;;;0.50;;
38302;SDS011;24103;42.454;27.400;2022-11-02T05:03:45;0.10;;;0.10;;
38302;SDS011;24103;42.454;27.400;2022-11-02T05:06:11;0.10;;;0.10;;
38302;SDS011;24103;42.454;27.400;2022-11-02T05:08:37;0.10;;;0.10;;
38302;SDS011;24103;42.454;27.400;2022-11-02T05:11:03;0.10;;;0.10;;
38302;SDS011;24103;42.454;27.400;2022-11-02T05:13:29;0.10;;;0.10;;
38302;SDS011;24103;42.454;27.400;2022-11-02T05:15:55;0.10;;;0.10;;
38302;SDS011;24103;42.454;27.400;2022-11-02T05:18:22;0.20;;;0.20;;
38302;SDS011;24103;42.454;27.400;2022-11-02T05:20:51;0.30;;;0.30;;
38302;SDS011;24103;42.454;27.400;2022-11-02T05:23:21;0.40;;;0.40;;
38302;SDS011;24103;42.454;27.400;2022-11-02T05:25:54;0.20;;;0.20;;
38302;SDS011;24103;42.454;27.400;2022-11-02T05:28:21;0.32;;;0.32;;
38302;SDS011;24103;42.454;27.400;2022-11-02T05:30:48;0.15;;;0.15;;
38302;SDS011;24103;42.454;27.400;2022-11-02T05:33:14;0.10;;;0.10;;
38302;SDS011;24103;42.454;27.400;2022-11-02T05:35:39;0.10;;;0.10;;
38302;SDS011;24103;42.454;27.400;2022-11-02T05:38:05;0.10;;;0.10;;
38302;SDS011;24103;42.454;27.400;2022-11-02T05:40:30;0.20;;;0.20;;
38302;SDS011;24103;42.454;27.400;2022-11-02T05:43:01;0.10;;;0.10;;
38302;SDS011;24103;42.454;27.400;2022-11-02T05:45:27;0.10;;;0.10;;
38302;SDS011;24103;42.454;27.400;2022-11-02T05:47:52;0.10;;;0.10;;
38302;SDS011;24103;42.454;27.400;2022-11-02T05:50:18;0.10;;;0.10;;
38302;SDS011;24103;42.454;27.400;2022-11-02T05:52:44;0.10;;;0.10;;
38302;SDS011;24103;42.454;27.400;2022-11-02T05:55:09;0.10;;;0.10;;
38302;SDS011;24103;42.454;27.400;2022-11-02T05:57:35;0.10;;;0.10;;
38302;SDS011;24103;42.454;27.400;2022-11-02T06:00:01;0.10;;;0.10;;
38302;SDS011;24103;42.454;27.400;2022-11-02T06:02:28;0.10;;;0.10;;
38302;SDS011;24103;42.454;27.400;2022-11-02T06:04:54;0.00;;;0.00;;
38302;SDS011;24103;42.454;27.400;2022-11-02T06:07:20;0.08;;;0.08;;
38302;SDS011;24103;42.454;27.400;2022-11-02T06:09:45;0.00;;;0.00;;
38302;SDS011;24103;42.454;27.400;2022-11-02T06:12:10;0.10;;;0.10;;
38302;SDS011;24103;42.454;27.400;2022-11-02T06:14:36;0.10;;;0.10;;
38302;SDS011;24103;42.454;27.400;2022-11-02T06:17:01;0.10;;;0.10;;
38302;SDS011;24103;42.454;27.400;2022-11-02T06:19:27;0.08;;;0.08;;
38302;SDS011;24103;42.454;27.400;2022-11-02T06:21:52;0.00;;;0.00;;
38302;SDS011;24103;42.454;27.400;2022-11-02T06:24:18;0.10;;;0.10;;
38302;SDS011;24103;42.454;27.400;2022-11-02T06:26:43;0.03;;;0.03;;
38302;SDS011;24103;42.454;27.400;2022-11-02T06:29:10;0.00;;;0.00;;
38302;SDS011;24103;42.454;27.400;2022-11-02T06:31:36;0.00;;;0.00;;
38302;SDS011;24103;42.454;27.400;2022-11-02T06:34:02;0.08;;;0.08;;
38302;SDS011;24103;42.454;27.400;2022-11-02T06:36:27;0.03;;;0.03;;
38302;SDS011;24103;42.454;27.400;2022-11-02T06:38:53;0.00;;;0.00;;
38302;SDS011;24103;42.454;27.400;2022-11-02T06:41:18;0.00;;;0.00;;
38302;SDS011;24103;42.454;27.400;2022-11-02T06:43:44;0.00;;;0.00;;
38302;SDS011;24103;42.454;27.400;2022-11-02T06:46:09;0.00;;;0.00;;
38302;SDS011;24103;42.454;27.400;2022-11-02T06:48:34;0.00;;;0.00;;
38302;SDS011;24103;42.454;27.400;2022-11-02T06:51:00;0.00;;;0.00;;
38302;SDS011;24103;42.454;27.400;2022-11-02T06:53:26;0.00;;;0.00;;
38302;SDS011;24103;42.454;27.400;2022-11-02T06:55:55;0.00;;;0.00;;
38302;SDS011;24103;42.454;27.400;2022-11-02T06:58:21;0.00;;;0.00;;
38302;SDS011;24103;42.454;27.400;2022-11-02T07:00:48;0.00;;;0.00;;
38302;SDS011;24103;42.454;27.400;2022-11-02T07:03:14;0.00;;;0.00;;
38302;SDS011;24103;42.454;27.400;2022-11-02T07:05:40;0.00;;;0.00;;
38302;SDS011;24103;42.454;27.400;2022-11-02T07:08:06;0.00;;;0.00;;
38302;SDS011;24103;42.454;27.400;2022-11-02T07:10:32;0.00;;;0.00;;
38302;SDS011;24103;42.454;27.400;2022-11-02T07:12:59;0.10;;;0.10;;
38302;SDS011;24103;42.454;27.400;2022-11-02T07:15:25;0.00;;;0.00;;
38302;SDS011;24103;42.454;27.400;2022-11-02T07:17:51;0.00;;;0.00;;
38302;SDS011;24103;42.454;27.400;2022-11-02T07:20:17;0.10;;;0.10;;
38302;SDS011;24103;42.454;27.400;2022-11-02T07:22:52;0.10;;;0.10;;
38302;SDS011;24103;42.454;27.400;2022-11-02T07:25:25;0.00;;;0.00;;
38302;SDS011;24103;42.454;27.400;2022-11-02T07:27:55;0.00;;;0.00;;
38302;SDS011;24103;42.454;27.400;2022-11-02T07:30:20;0.00;;;0.00;;
38302;SDS011;24103;42.454;27.400;2022-11-02T07:32:46;0.10;;;0.10;;
38302;SDS011;24103;42.454;27.400;2022-11-02T07:35:12;0.10;;;0.10;;
38302;SDS011;24103;42.454;27.400;2022-11-02T07:37:39;0.00;;;0.00;;
38302;SDS011;24103;42.454;27.400;2022-11-02T07:40:05;0.10;;;0.10;;
38302;SDS011;24103;42.454;27.400;2022-11-02T07:42:32;0.00;;;0.00;;
38302;SDS011;24103;42.454;27.400;2022-11-02T07:44:59;0.00;;;0.00;;
38302;SDS011;24103;42.454;27.400;2022-11-02T07:47:25;0.00;;;0.00;;
38302;SDS011;24103;42.454;27.400;2022-11-02T07:49:50;0.08;;;0.08;;
38302;SDS011;24103;42.454;27.400;2022-11-02T07:52:16;0.00;;;0.00;;
38302;SDS011;24103;42.454;27.400;2022-11-02T07:54:41;0.00;;;0.00;;
